Airfield :
LOGIN :

Register | Disclaimer

   EN    FR    IT 

 










Legend :    VFR   Marginal VFR   IFR   Intensive IFR   Very Intensive IFR
Visi :
Ceiling :
>= 8 km
>= 3000ft
5 to 8 km
1000 to 3000 ft
1500m to 5 km
500 to 1000 ft
800 to 1500m
200 to 500 ft
< 800m
< 200 ft
Symbols :   Thunderstorms  Fog  Heavy snow  Heavy precipitations  Wind > 20 kt
SIGMETs :     Misc.  Thunderstorms  Icing  Turbulence  Mountain Waves  Volcanic Ashes






- Airport Elevation : 2945 ft
- IATA code : RGS


LEBG - Burgos

CURRENT METAR :
  • 240330Z AUTO 28007KT 250V310 9999 -RA BKN008 BKN013 BKN019 06/05 Q1014

EXPIRED METARs :
  • 240300Z AUTO 25005KT 9999 -RA SCT005 BKN009 BKN025 06/06 Q1013
  • 240230Z AUTO 18003KT 9999 -RA SCT041 BKN049 06/06 Q1013
  • 240200Z AUTO VRB02KT 9999 -RA BKN043 BKN049 07/06 Q1013
  • 240130Z AUTO 00000KT 9999 -RA SCT009 BKN026 BKN032 07/06 Q1012 RERA
  • 240100Z AUTO 00000KT 9999 RA BKN029 BKN037 07/06 Q1012

TAF TAF LEBG
Valid from the 24 at 03:00 until the 24 at 12:00 UTC


240200Z 2403/2412 24010KT 9999 BKN030
PROB40
TEMPO 2403/2410 3000 RA BKN008



MET'MAP, your aeronautical weather chart ! - Copyright ORBIFLY December 2007 - Disclaimer

ORBIFLY MET'MAP TEAM :

Programming & Development : Alexandra Zaïnal
Concept & Development : Baudouin d'Aumeries
Co-Development & Prog : Marc-Olivier Méhu
Technical & hardware support : Manuel Goepfert

Contact : metmap@orbifly.com




SOURCES & CREDITS :

   NOAA